createdAt,value
2022-12-04T00:01:28.082Z,0.10
2022-12-04T00:03:57.904Z,0.10
2022-12-04T00:06:28.242Z,0.20
2022-12-04T00:08:56.785Z,0.20
2022-12-04T00:11:26.846Z,0.10
2022-12-04T00:14:03.108Z,0.10
2022-12-04T00:16:34.883Z,0.20
2022-12-04T00:19:03.062Z,0.10
2022-12-04T00:21:32.708Z,0.20
2022-12-04T00:24:02.310Z,0.20
2022-12-04T00:26:32.101Z,0.20
2022-12-04T00:29:00.325Z,0.20
2022-12-04T00:31:30.635Z,0.20
2022-12-04T00:33:59.186Z,0.30
2022-12-04T00:36:30.174Z,0.30
2022-12-04T00:39:00.637Z,0.20
2022-12-04T00:41:29.917Z,0.30
2022-12-04T00:43:59.195Z,0.30
2022-12-04T00:46:29.103Z,0.20
2022-12-04T00:48:58.112Z,0.20
2022-12-04T00:51:26.954Z,0.30
2022-12-04T00:53:55.530Z,0.30
2022-12-04T00:56:28.514Z,0.30
2022-12-04T00:58:58.071Z,0.30
2022-12-04T01:01:29.559Z,0.30
2022-12-04T01:03:58.535Z,0.40
2022-12-04T01:06:28.466Z,0.30
2022-12-04T01:08:58.276Z,0.30
2022-12-04T01:11:29.913Z,0.40
2022-12-04T01:13:58.627Z,0.50
2022-12-04T01:16:29.634Z,0.40
2022-12-04T01:18:57.844Z,0.40
2022-12-04T01:21:25.881Z,0.50
2022-12-04T01:23:54.407Z,0.50
2022-12-04T01:26:22.508Z,0.50
2022-12-04T01:28:51.944Z,0.50
2022-12-04T01:31:21.361Z,0.50
2022-12-04T01:33:50.248Z,0.50
2022-12-04T01:36:20.791Z,0.50
2022-12-04T01:38:49.630Z,0.50
2022-12-04T01:41:20.512Z,0.50
2022-12-04T01:44:12.499Z,0.50
2022-12-04T01:46:41.203Z,0.50
2022-12-04T01:49:12.363Z,0.50
2022-12-04T01:51:43.394Z,0.60
2022-12-04T01:54:16.263Z,0.60
2022-12-04T01:56:47.990Z,0.60
2022-12-04T01:59:19.625Z,0.60
2022-12-04T02:01:58.331Z,0.60
2022-12-04T02:04:26.664Z,0.60
2022-12-04T02:06:55.058Z,0.60
2022-12-04T02:09:26.792Z,0.60
2022-12-04T02:12:04.458Z,0.60
2022-12-04T02:14:43.879Z,0.60
2022-12-04T02:17:22.193Z,0.50
2022-12-04T02:20:13.701Z,0.50
2022-12-04T02:23:00.954Z,0.60
2022-12-04T02:25:36.907Z,0.60
2022-12-04T02:28:10.748Z,0.60
2022-12-04T02:30:42.326Z,0.60
2022-12-04T02:33:18.497Z,0.60
2022-12-04T02:35:49.316Z,0.60
2022-12-04T02:38:23.614Z,0.60
2022-12-04T02:40:57.581Z,0.60
2022-12-04T02:43:31.001Z,0.70
2022-12-04T02:46:02.545Z,0.70
2022-12-04T02:48:34.554Z,0.70
2022-12-04T02:51:05.494Z,0.80
2022-12-04T02:53:36.694Z,0.80
2022-12-04T02:56:10.552Z,0.80
2022-12-04T02:58:45.453Z,0.80
2022-12-04T03:01:23.877Z,0.80
2022-12-04T03:03:56.168Z,0.80
2022-12-04T03:06:25.695Z,0.90
2022-12-04T03:09:00.738Z,1.00
2022-12-04T03:11:32.262Z,0.80
2022-12-04T03:14:08.090Z,0.90
2022-12-04T03:16:39.947Z,0.90
2022-12-04T03:19:11.899Z,1.00
2022-12-04T03:21:47.311Z,1.00
2022-12-04T03:24:20.984Z,0.90
2022-12-04T03:26:53.363Z,0.90
2022-12-04T03:29:24.979Z,0.90
2022-12-04T03:31:58.243Z,0.80
2022-12-04T03:34:29.578Z,0.90
2022-12-04T03:37:00.693Z,0.90
2022-12-04T03:39:36.279Z,1.00
2022-12-04T03:42:11.468Z,1.00
2022-12-04T03:44:45.031Z,1.00
2022-12-04T03:47:17.778Z,0.90
2022-12-04T03:49:57.521Z,1.00
2022-12-04T03:52:29.979Z,1.00
2022-12-04T03:55:03.166Z,1.00
2022-12-04T03:57:35.394Z,1.00
2022-12-04T04:00:08.488Z,1.00
2022-12-04T04:02:42.601Z,1.00
2022-12-04T04:05:14.067Z,1.00
2022-12-04T04:07:46.764Z,1.10
2022-12-04T04:10:17.551Z,1.10
2022-12-04T04:13:10.292Z,1.10
2022-12-04T04:16:03.252Z,1.10
2022-12-04T04:18:49.920Z,1.10
2022-12-04T04:21:40.041Z,1.10
2022-12-04T04:24:18.223Z,1.00
2022-12-04T04:26:49.204Z,1.10
2022-12-04T04:29:17.135Z,1.10
2022-12-04T04:31:52.928Z,1.20
2022-12-04T04:34:25.739Z,1.20
2022-12-04T04:36:58.815Z,1.10
2022-12-04T04:39:34.934Z,1.10
2022-12-04T04:42:09.742Z,1.00
2022-12-04T04:44:49.726Z,1.00
2022-12-04T04:47:25.275Z,1.00
2022-12-04T04:49:53.880Z,1.10
2022-12-04T04:52:25.077Z,1.00
2022-12-04T04:54:53.110Z,1.00
2022-12-04T04:57:28.433Z,1.00
2022-12-04T04:59:56.820Z,1.00
2022-12-04T05:02:28.663Z,0.90
2022-12-04T05:04:57.969Z,1.00
2022-12-04T05:07:26.018Z,0.90
2022-12-04T05:09:54.263Z,1.00
2022-12-04T05:12:22.458Z,1.00
2022-12-04T05:14:50.983Z,1.00
2022-12-04T05:17:19.120Z,1.00
2022-12-04T05:19:54.864Z,0.90
2022-12-04T05:22:25.408Z,0.90
2022-12-04T05:24:54.202Z,0.90
2022-12-04T05:27:22.709Z,0.90
2022-12-04T05:29:52.893Z,0.90
2022-12-04T05:32:21.150Z,0.90
2022-12-04T05:34:50.994Z,0.90
2022-12-04T05:37:19.468Z,0.90
2022-12-04T05:39:47.818Z,0.90
2022-12-04T05:42:16.300Z,0.90
2022-12-04T05:44:44.291Z,0.90
2022-12-04T05:47:12.377Z,0.90
2022-12-04T05:49:40.719Z,0.90
2022-12-04T05:52:10.569Z,1.00
2022-12-04T05:54:38.726Z,1.10
2022-12-04T05:57:06.825Z,1.00
2022-12-04T05:59:35.069Z,1.00
2022-12-04T06:02:03.573Z,0.90
2022-12-04T06:04:31.640Z,1.00
2022-12-04T06:06:59.673Z,1.00
2022-12-04T06:09:28.992Z,1.10
2022-12-04T06:11:59.287Z,1.00
2022-12-04T06:14:28.011Z,1.00
2022-12-04T06:16:56.481Z,1.10
2022-12-04T06:19:25.194Z,1.00
2022-12-04T06:21:54.454Z,1.00
2022-12-04T06:24:24.143Z,1.00
2022-12-04T06:27:26.933Z,1.10
2022-12-04T06:29:45.830Z,1.10
2022-12-04T06:32:18.012Z,1.10
2022-12-04T06:34:51.950Z,1.00
2022-12-04T06:37:20.235Z,1.00
2022-12-04T06:39:48.283Z,1.00
2022-12-04T06:42:18.048Z,1.00
2022-12-04T06:44:46.432Z,1.10
2022-12-04T06:47:14.380Z,1.10
2022-12-04T06:49:42.766Z,1.10
2022-12-04T06:52:10.969Z,1.00
2022-12-04T06:54:39.102Z,1.00
2022-12-04T06:57:07.104Z,1.00
2022-12-04T06:59:37.460Z,1.00
2022-12-04T07:02:05.693Z,1.00
2022-12-04T07:04:33.751Z,1.10
2022-12-04T07:07:01.859Z,1.10
2022-12-04T07:09:29.915Z,1.10
2022-12-04T07:11:57.970Z,1.20
2022-12-04T07:14:26.152Z,1.20
2022-12-04T07:16:55.666Z,1.20
2022-12-04T07:19:23.737Z,1.20
2022-12-04T07:21:51.693Z,1.20
2022-12-04T07:24:19.687Z,1.20
2022-12-04T07:26:49.144Z,1.30
2022-12-04T07:29:17.181Z,1.30
2022-12-04T07:31:45.387Z,1.30
2022-12-04T07:34:14.955Z,1.30
2022-12-04T07:36:43.024Z,1.40
2022-12-04T07:39:11.790Z,1.30
2022-12-04T07:41:39.978Z,2.70
2022-12-04T07:44:08.024Z,2.60
2022-12-04T07:46:36.112Z,2.30
2022-12-04T07:49:04.177Z,2.00
2022-12-04T07:51:33.978Z,1.80
2022-12-04T07:54:04.137Z,1.70
2022-12-04T07:56:32.799Z,1.60
2022-12-04T07:59:01.149Z,1.60
2022-12-04T08:01:29.729Z,1.60
2022-12-04T08:03:59.895Z,1.70
2022-12-04T08:06:30.118Z,1.70
2022-12-04T08:09:01.519Z,1.70
2022-12-04T08:11:33.408Z,1.70
2022-12-04T08:14:03.879Z,1.70
2022-12-04T08:16:34.113Z,1.70
2022-12-04T08:19:03.196Z,1.70
2022-12-04T08:21:32.574Z,1.70
2022-12-04T08:24:02.576Z,1.80
2022-12-04T08:26:34.207Z,1.80
2022-12-04T08:29:03.021Z,1.80
2022-12-04T08:31:32.993Z,1.80
2022-12-04T08:34:03.815Z,1.90
2022-12-04T08:36:32.224Z,2.00
2022-12-04T08:39:02.054Z,2.00
2022-12-04T08:41:30.133Z,2.00
2022-12-04T08:43:58.840Z,1.90
2022-12-04T08:46:29.607Z,2.00
2022-12-04T08:48:58.233Z,2.10
2022-12-04T08:51:28.436Z,2.10
2022-12-04T08:53:57.499Z,2.20
2022-12-04T08:56:28.625Z,2.20
2022-12-04T08:58:57.607Z,2.20
2022-12-04T09:01:26.653Z,2.20
2022-12-04T09:03:55.504Z,2.20
2022-12-04T09:06:23.942Z,2.20
2022-12-04T09:08:53.556Z,2.20
2022-12-04T09:11:23.298Z,2.30
2022-12-04T09:13:53.382Z,2.30
2022-12-04T09:16:23.827Z,2.30
2022-12-04T09:18:52.230Z,2.40
2022-12-04T09:21:21.815Z,2.30
2022-12-04T09:23:50.113Z,2.30
2022-12-04T09:26:22.634Z,2.30
2022-12-04T09:28:53.389Z,2.30
2022-12-04T09:31:22.353Z,2.30
2022-12-04T09:33:50.458Z,2.30
2022-12-04T09:36:18.986Z,2.40
2022-12-04T09:38:49.479Z,2.50
2022-12-04T09:41:55.054Z,2.60
2022-12-04T09:44:27.947Z,2.80
2022-12-04T09:47:01.262Z,2.80
2022-12-04T09:49:35.767Z,2.80
2022-12-04T09:52:09.259Z,2.90
2022-12-04T09:54:43.597Z,2.80
2022-12-04T09:57:17.265Z,2.80
2022-12-04T09:59:47.303Z,2.80
2022-12-04T10:02:33.915Z,2.70
2022-12-04T10:05:02.461Z,2.70
2022-12-04T10:07:35.309Z,2.80
2022-12-04T10:10:08.362Z,2.80
2022-12-04T10:12:48.622Z,2.80
2022-12-04T10:15:30.733Z,2.70
2022-12-04T10:18:21.937Z,2.70
2022-12-04T10:21:18.235Z,2.80
2022-12-04T10:23:57.359Z,2.70
2022-12-04T10:26:29.654Z,2.80
2022-12-04T10:29:01.534Z,2.90
2022-12-04T10:31:31.905Z,2.80
2022-12-04T10:34:05.129Z,2.80
2022-12-04T10:36:36.404Z,2.90
2022-12-04T10:39:11.067Z,2.90
2022-12-04T10:41:44.276Z,3.00
2022-12-04T10:44:16.479Z,3.00
2022-12-04T10:46:46.831Z,2.90
2022-12-04T10:49:18.921Z,3.00
2022-12-04T10:51:48.174Z,3.00
2022-12-04T10:54:23.064Z,3.10
2022-12-04T10:56:55.759Z,3.10
2022-12-04T10:59:24.336Z,3.20
2022-12-04T11:02:06.940Z,3.20
2022-12-04T11:04:36.746Z,3.20
2022-12-04T11:07:06.997Z,3.30
2022-12-04T11:09:36.785Z,3.20
2022-12-04T11:12:10.681Z,3.10
2022-12-04T11:14:42.736Z,3.10
2022-12-04T11:17:19.124Z,3.20
2022-12-04T11:19:47.271Z,3.10
2022-12-04T11:22:18.711Z,3.10
2022-12-04T11:24:54.756Z,3.20
2022-12-04T11:27:27.135Z,3.20
2022-12-04T11:29:56.591Z,3.20
2022-12-04T11:32:28.598Z,3.20
2022-12-04T11:35:01.367Z,3.20
2022-12-04T11:37:33.752Z,3.20
2022-12-04T11:40:02.917Z,3.20
2022-12-04T11:42:34.179Z,3.20
2022-12-04T11:45:08.630Z,3.20
2022-12-04T11:47:38.145Z,3.30
2022-12-04T11:50:20.091Z,3.30
2022-12-04T11:52:59.142Z,3.20
2022-12-04T11:55:33.905Z,3.20
2022-12-04T11:58:31.933Z,3.20
2022-12-04T12:01:12.345Z,3.10
2022-12-04T12:03:51.736Z,3.20
2022-12-04T12:06:32.461Z,3.20
2022-12-04T12:09:11.313Z,3.20
2022-12-04T12:11:44.226Z,3.20
2022-12-04T12:14:19.921Z,3.10
2022-12-04T12:16:59.358Z,3.20
2022-12-04T12:20:09.145Z,3.30
2022-12-04T12:23:14.919Z,3.30
2022-12-04T12:25:52.519Z,3.20
2022-12-04T12:28:41.589Z,3.20
2022-12-04T12:31:22.431Z,3.20
2022-12-04T12:33:55.317Z,3.20
2022-12-04T12:36:25.631Z,3.30
2022-12-04T12:38:59.271Z,3.20
2022-12-04T12:41:32.287Z,3.10
2022-12-04T12:44:08.369Z,3.20
2022-12-04T12:46:49.037Z,3.20
2022-12-04T12:49:22.869Z,3.10
2022-12-04T12:51:56.253Z,3.10
2022-12-04T12:54:32.611Z,3.20
2022-12-04T12:57:06.760Z,3.20
2022-12-04T12:59:36.107Z,3.20
2022-12-04T13:02:12.310Z,3.20
2022-12-04T13:04:43.547Z,3.20
2022-12-04T13:07:27.051Z,3.10
2022-12-04T13:10:03.843Z,3.10
2022-12-04T13:12:38.242Z,3.10
2022-12-04T13:15:07.221Z,3.20
2022-12-04T13:17:39.540Z,3.20
2022-12-04T13:20:21.402Z,3.10
2022-12-04T13:23:00.204Z,3.20
2022-12-04T13:25:43.807Z,3.20
2022-12-04T13:28:25.376Z,3.10
2022-12-04T13:31:02.182Z,3.10
2022-12-04T13:33:58.209Z,3.00
2022-12-04T13:37:00.760Z,3.00
2022-12-04T13:40:17.602Z,2.90
2022-12-04T13:42:47.622Z,2.90
2022-12-04T13:45:28.546Z,2.90
2022-12-04T13:48:01.090Z,2.90
2022-12-04T13:50:31.853Z,2.90
2022-12-04T13:53:01.981Z,2.80
2022-12-04T13:55:32.591Z,2.90
2022-12-04T13:58:04.600Z,2.90
2022-12-04T14:00:34.883Z,2.80
2022-12-04T14:03:07.607Z,2.80
2022-12-04T14:05:42.918Z,2.80
2022-12-04T14:08:24.684Z,2.90
2022-12-04T14:11:05.278Z,2.90
2022-12-04T14:13:45.613Z,2.90
2022-12-04T14:16:23.196Z,2.90
2022-12-04T14:18:54.938Z,2.90
2022-12-04T14:21:23.325Z,2.90
2022-12-04T14:23:54.919Z,2.90
2022-12-04T14:26:49.065Z,2.90
2022-12-04T14:29:46.972Z,2.90
2022-12-04T14:32:20.275Z,2.90
2022-12-04T14:34:49.146Z,2.80
2022-12-04T14:37:24.712Z,2.80
2022-12-04T14:39:53.985Z,2.90
2022-12-04T14:42:27.221Z,2.80
2022-12-04T14:44:59.894Z,2.90
2022-12-04T14:47:40.395Z,2.80
2022-12-04T14:50:31.620Z,2.80
2022-12-04T14:53:05.967Z,2.80
2022-12-04T14:55:41.787Z,2.90
2022-12-04T14:58:34.610Z,2.80
2022-12-04T15:01:07.060Z,2.80
2022-12-04T15:03:37.808Z,2.80
2022-12-04T15:06:12.899Z,2.70
2022-12-04T15:08:51.068Z,2.70
2022-12-04T15:11:38.508Z,2.70
2022-12-04T15:14:13.883Z,2.70
2022-12-04T15:16:44.169Z,2.80
2022-12-04T15:19:21.272Z,2.70
2022-12-04T15:21:49.518Z,2.70
2022-12-04T15:24:23.316Z,2.70
2022-12-04T15:26:53.806Z,2.70
2022-12-04T15:29:26.673Z,2.70
2022-12-04T15:32:00.018Z,2.70
2022-12-04T15:34:37.310Z,2.60
2022-12-04T15:37:08.747Z,2.70
2022-12-04T15:39:38.096Z,2.70
2022-12-04T15:42:07.353Z,2.70
2022-12-04T15:44:36.668Z,2.70
2022-12-04T15:47:19.619Z,2.70
2022-12-04T15:49:47.697Z,2.60
2022-12-04T15:52:17.561Z,2.70
2022-12-04T15:54:51.666Z,2.60
2022-12-04T15:57:28.941Z,2.60
2022-12-04T16:00:01.103Z,2.60
2022-12-04T16:02:34.734Z,2.60
2022-12-04T16:05:13.349Z,2.60
2022-12-04T16:07:51.178Z,2.50
2022-12-04T16:10:22.795Z,2.60
2022-12-04T16:12:54.746Z,2.60
2022-12-04T16:15:23.689Z,2.60
2022-12-04T16:17:54.036Z,2.60
2022-12-04T16:20:22.326Z,2.60
2022-12-04T16:22:54.256Z,2.60
2022-12-04T16:25:22.388Z,2.60
2022-12-04T16:27:50.508Z,2.60
2022-12-04T16:30:19.256Z,2.60
2022-12-04T16:32:47.392Z,2.50
2022-12-04T16:35:18.129Z,2.50
2022-12-04T16:37:46.151Z,2.50
2022-12-04T16:40:15.690Z,2.50
2022-12-04T16:42:44.688Z,2.50
2022-12-04T16:45:23.224Z,2.50
2022-12-04T16:47:51.319Z,2.50
2022-12-04T16:50:20.820Z,2.50
2022-12-04T16:52:49.322Z,2.50
2022-12-04T16:55:20.958Z,2.50
2022-12-04T16:57:49.126Z,2.50
2022-12-04T17:00:18.726Z,2.50
2022-12-04T17:02:46.895Z,2.50
2022-12-04T17:05:21.935Z,2.50
2022-12-04T17:07:50.167Z,2.40
2022-12-04T17:10:23.380Z,2.40
2022-12-04T17:12:53.830Z,2.40
2022-12-04T17:15:21.905Z,2.40
2022-12-04T17:17:50.169Z,2.40
2022-12-04T17:20:21.441Z,2.40
2022-12-04T17:22:49.947Z,2.40
2022-12-04T17:25:18.972Z,2.40
2022-12-04T17:27:47.313Z,2.30
2022-12-04T17:30:16.480Z,2.40
2022-12-04T17:32:44.785Z,2.30
2022-12-04T17:35:16.089Z,2.40
2022-12-04T17:37:46.227Z,2.40
2022-12-04T17:40:15.664Z,2.40
2022-12-04T17:42:43.707Z,2.40
2022-12-04T17:45:14.375Z,2.40
2022-12-04T17:47:42.444Z,2.30
2022-12-04T17:50:11.356Z,2.30
2022-12-04T17:52:39.810Z,2.30
2022-12-04T17:55:10.138Z,2.30
2022-12-04T17:57:38.707Z,2.30
2022-12-04T18:00:08.205Z,2.30
2022-12-04T18:02:37.550Z,2.30
2022-12-04T18:05:09.763Z,2.20
2022-12-04T18:07:37.910Z,2.20
2022-12-04T18:10:08.036Z,2.20
2022-12-04T18:12:37.613Z,2.20
2022-12-04T18:15:06.647Z,2.20
2022-12-04T18:17:35.302Z,2.20
2022-12-04T18:20:05.315Z,2.20
2022-12-04T18:22:33.998Z,2.10
2022-12-04T18:25:02.516Z,2.10
2022-12-04T18:27:30.810Z,2.10
2022-12-04T18:30:02.462Z,2.10
2022-12-04T18:32:30.624Z,2.20
2022-12-04T18:34:58.871Z,2.20
2022-12-04T18:37:26.992Z,2.20
2022-12-04T18:39:55.293Z,2.20
2022-12-04T18:42:24.550Z,2.20
2022-12-04T18:44:52.572Z,2.20
2022-12-04T18:47:21.992Z,2.20
2022-12-04T18:49:50.037Z,2.20
2022-12-04T18:52:18.029Z,2.20
2022-12-04T18:54:46.404Z,2.20
2022-12-04T18:57:14.449Z,2.10
2022-12-04T18:59:42.574Z,2.20
2022-12-04T19:02:11.472Z,2.20
2022-12-04T19:04:43.602Z,2.10
2022-12-04T19:07:11.839Z,2.10
2022-12-04T19:12:27.957Z,2.10
2022-12-04T19:14:56.008Z,2.10
2022-12-04T19:17:27.460Z,2.10
2022-12-04T19:19:57.057Z,2.10
2022-12-04T19:22:25.228Z,2.10
2022-12-04T19:24:53.272Z,2.10
2022-12-04T19:27:21.506Z,2.10
2022-12-04T19:29:49.746Z,2.10
2022-12-04T19:32:19.224Z,2.10
2022-12-04T19:34:49.333Z,2.10
2022-12-04T19:37:19.364Z,2.10
2022-12-04T19:39:47.445Z,2.10
2022-12-04T19:42:15.868Z,2.10
2022-12-04T19:44:48.722Z,2.10
2022-12-04T19:47:17.387Z,2.10
2022-12-04T19:49:46.435Z,2.00
2022-12-04T19:52:19.564Z,2.00
2022-12-04T19:54:47.612Z,2.00
2022-12-04T19:57:16.009Z,2.00
2022-12-04T19:59:46.483Z,2.00
2022-12-04T20:02:15.226Z,2.00
2022-12-04T20:04:43.936Z,2.00
2022-12-04T20:07:12.210Z,2.10
2022-12-04T20:09:43.130Z,2.00
2022-12-04T20:12:13.039Z,2.10
2022-12-04T20:14:41.164Z,2.10
2022-12-04T20:17:10.058Z,2.10
2022-12-04T20:19:38.269Z,2.10
2022-12-04T20:22:06.410Z,2.10
2022-12-04T20:24:34.516Z,2.10
2022-12-04T20:27:04.105Z,2.00
2022-12-04T20:29:32.360Z,2.00
2022-12-04T20:32:00.400Z,2.00
2022-12-04T20:34:28.542Z,2.00
2022-12-04T20:36:57.925Z,1.90
2022-12-04T20:39:26.048Z,2.00
2022-12-04T20:41:54.340Z,2.00
2022-12-04T20:44:23.682Z,2.00
2022-12-04T20:46:51.739Z,1.90
2022-12-04T20:49:22.286Z,2.00
2022-12-04T20:54:43.887Z,1.90
2022-12-04T20:57:12.056Z,1.90
2022-12-04T20:59:40.076Z,1.90
2022-12-04T21:02:08.344Z,1.90
2022-12-04T21:04:38.227Z,1.90
2022-12-04T21:07:06.709Z,1.90
2022-12-04T21:09:34.781Z,2.00
2022-12-04T21:12:25.351Z,2.00
2022-12-04T21:15:10.675Z,2.00
2022-12-04T21:17:39.290Z,2.00
2022-12-04T21:20:09.067Z,1.90
2022-12-04T21:22:37.350Z,1.90
2022-12-04T21:25:05.928Z,1.90
2022-12-04T21:27:35.331Z,1.90
2022-12-04T21:30:03.778Z,1.90
2022-12-04T21:32:31.782Z,1.90
2022-12-04T21:35:01.594Z,1.90
2022-12-04T21:37:29.667Z,1.80
2022-12-04T21:39:59.480Z,1.80
2022-12-04T21:42:34.951Z,1.80
2022-12-04T21:45:07.595Z,1.80
2022-12-04T21:47:36.239Z,1.80
2022-12-04T21:50:05.321Z,1.80
2022-12-04T21:52:33.412Z,1.80
2022-12-04T21:55:04.737Z,1.80
2022-12-04T21:57:32.774Z,1.80
2022-12-04T22:00:00.923Z,1.80
2022-12-04T22:02:30.452Z,1.70
2022-12-04T22:04:58.618Z,1.80
2022-12-04T22:07:30.248Z,1.80
2022-12-04T22:09:58.520Z,1.70
2022-12-04T22:15:17.414Z,1.70
2022-12-04T22:17:50.636Z,1.60
2022-12-04T22:20:19.247Z,1.60
2022-12-04T22:22:47.277Z,1.60
2022-12-04T22:25:16.687Z,1.60
2022-12-04T22:27:44.751Z,1.60
2022-12-04T22:30:14.370Z,1.70
2022-12-04T22:32:42.465Z,1.60
2022-12-04T22:35:12.179Z,1.70
2022-12-04T22:37:44.314Z,1.70
2022-12-04T22:40:16.242Z,1.70
2022-12-04T22:42:45.581Z,1.70
2022-12-04T22:45:13.703Z,1.70
2022-12-04T22:47:42.108Z,1.70
2022-12-04T22:50:12.826Z,1.80
2022-12-04T22:52:40.893Z,1.70
2022-12-04T22:55:09.833Z,1.70
2022-12-04T22:57:37.911Z,1.70
2022-12-04T23:00:09.278Z,1.70
2022-12-04T23:02:37.407Z,1.70
2022-12-04T23:05:06.168Z,1.70
2022-12-04T23:07:42.359Z,1.60
2022-12-04T23:10:10.768Z,1.60
2022-12-04T23:12:38.786Z,1.60
2022-12-04T23:15:07.966Z,1.60
2022-12-04T23:17:36.083Z,1.50
2022-12-04T23:20:04.740Z,1.60
2022-12-04T23:22:33.180Z,1.50
2022-12-04T23:25:03.168Z,1.60
2022-12-04T23:27:32.456Z,1.50
2022-12-04T23:30:00.458Z,1.50
2022-12-04T23:32:28.869Z,1.50
2022-12-04T23:34:56.953Z,1.40
2022-12-04T23:37:25.073Z,1.50
2022-12-04T23:39:53.066Z,1.40
2022-12-04T23:42:25.343Z,1.30
2022-12-04T23:44:53.529Z,1.40
2022-12-04T23:47:21.716Z,1.40
2022-12-04T23:49:49.778Z,1.30
2022-12-04T23:52:17.988Z,1.20
2022-12-04T23:54:49.107Z,1.20
2022-12-04T23:57:17.381Z,1.20
2022-12-04T23:59:46.754Z,1.20
